KFDY

Findlay Airport

Findlay, Ohio, USA
METAR KFDY 150253Z AUTO 23006KT 10SM CLR 23/19 A2999 RMK AO2 SLP147 T02330194 51008
Observed Flight Rules
Aug-15 @ 02:53 UTC (42 minutes ago) Visual Flight Rules
Wind Visibility Clouds
230° at 6 knots 10 miles
  • Clear skies
Temperatures Readings
Current 23°C / 73°F
Dewpoint 19°C / 66°F
Humidity 78%
Altimeter 29.99" Hg
Pressure 1014.7 hPa
Elevation 247
METAR KFDY 150253Z AUTO 23006KT 10SM CLR 23/19 A2999 RMK AO2 SLP147 T02330194 51008
Observed Flight Rules
Aug-15 @ 02:53 UTC
(42 minutes ago)
VFR
Wind Visibility
230° at 6 knots 10 miles
Clouds
  • Clear skies
Temperature Dewpoint
23°C / 73°F 19°C / 66°F
Humidity Altimeter Pressure
78% 29.99" Hg 1014.7 hPa